createdAt,value
2018-12-14T00:00:27.767Z,17.80
2018-12-14T00:01:04.010Z,17.73
2018-12-14T00:01:40.873Z,16.93
2018-12-14T00:02:16.959Z,16.50
2018-12-14T00:02:51.210Z,16.50
2018-12-14T00:04:16.012Z,17.23
2018-12-14T00:04:50.249Z,17.30
2018-12-14T00:05:30.446Z,16.97
2018-12-14T00:06:05.989Z,18.25
2018-12-14T00:06:40.433Z,17.77
2018-12-14T00:07:15.760Z,17.42
2018-12-14T00:07:50.946Z,17.40
2018-12-14T00:08:25.545Z,17.32
2018-12-14T00:08:59.607Z,18.52
2018-12-14T00:09:34.053Z,18.87
2018-12-14T00:10:10.253Z,18.60
2018-12-14T00:10:45.440Z,18.82
2018-12-14T00:11:20.652Z,18.35
2018-12-14T00:11:55.304Z,18.98
2018-12-14T00:12:29.806Z,18.12
2018-12-14T00:13:03.945Z,17.70
2018-12-14T00:13:37.640Z,19.05
2018-12-14T00:14:11.622Z,19.05
2018-12-14T00:14:45.697Z,18.32
2018-12-14T00:15:19.554Z,17.30
2018-12-14T00:15:53.808Z,19.30
2018-12-14T00:16:27.804Z,19.90
2018-12-14T00:17:01.662Z,18.50
2018-12-14T00:17:35.534Z,18.45
2018-12-14T00:18:09.557Z,18.50
2018-12-14T00:18:43.629Z,18.05
2018-12-14T00:19:18.333Z,18.12
2018-12-14T00:19:52.117Z,17.62
2018-12-14T00:20:26.091Z,19.23
2018-12-14T00:21:00.028Z,18.40
2018-12-14T00:21:33.899Z,17.60
2018-12-14T00:22:08.436Z,18.12
2018-12-14T00:22:45.551Z,18.27
2018-12-14T00:23:19.495Z,18.23
2018-12-14T00:23:53.402Z,18.45
2018-12-14T00:24:28.185Z,18.30
2018-12-14T00:25:01.990Z,19.12
2018-12-14T00:25:35.958Z,18.67
2018-12-14T00:26:09.962Z,18.70
2018-12-14T00:26:43.766Z,17.67
2018-12-14T00:27:17.803Z,18.40
2018-12-14T00:27:51.585Z,18.25
2018-12-14T00:28:25.719Z,18.95
2018-12-14T00:28:59.678Z,19.00
2018-12-14T00:29:33.673Z,19.05
2018-12-14T00:30:08.338Z,19.15
2018-12-14T00:30:43.454Z,18.17
2018-12-14T00:31:17.246Z,18.85
2018-12-14T00:31:51.693Z,18.85
2018-12-14T00:32:25.860Z,18.67
2018-12-14T00:32:59.989Z,18.20
2018-12-14T00:33:33.926Z,17.67
2018-12-14T00:34:07.850Z,19.25
2018-12-14T00:34:41.678Z,18.77
2018-12-14T00:35:15.958Z,19.50
2018-12-14T00:35:49.938Z,18.82
2018-12-14T00:36:24.041Z,19.12
2018-12-14T00:36:57.784Z,18.92
2018-12-14T00:37:31.824Z,19.87
2018-12-14T00:38:05.734Z,19.57
2018-12-14T00:38:40.178Z,19.25
2018-12-14T00:39:14.123Z,19.10
2018-12-14T00:39:48.804Z,18.80
2018-12-14T00:40:22.763Z,18.98
2018-12-14T00:40:57.235Z,18.40
2018-12-14T00:41:31.274Z,18.42
2018-12-14T00:42:05.257Z,18.90
2018-12-14T00:42:39.242Z,18.60
2018-12-14T00:43:13.073Z,19.35
2018-12-14T00:43:46.841Z,19.75
2018-12-14T00:44:20.832Z,18.75
2018-12-14T00:44:55.671Z,19.32
2018-12-14T00:45:30.087Z,17.95
2018-12-14T00:46:04.746Z,19.70
2018-12-14T00:46:43.209Z,20.32
2018-12-14T00:47:17.213Z,18.60
2018-12-14T00:47:51.139Z,18.45
2018-12-14T00:48:25.207Z,19.62
2018-12-14T00:48:59.191Z,18.92
2018-12-14T00:49:33.254Z,19.30
2018-12-14T00:50:08.141Z,17.98
2018-12-14T00:50:41.917Z,19.20
2018-12-14T00:51:15.739Z,19.00
2018-12-14T00:51:49.570Z,18.23
2018-12-14T00:52:23.878Z,19.15
2018-12-14T00:52:57.891Z,20.30
2018-12-14T00:53:31.765Z,19.02
2018-12-14T00:54:05.759Z,19.30
2018-12-14T00:54:39.641Z,17.80
2018-12-14T00:55:13.482Z,19.37
2018-12-14T00:55:47.470Z,19.07
2018-12-14T00:56:21.311Z,18.10
2018-12-14T00:56:55.132Z,18.73
2018-12-14T00:57:29.241Z,18.82
2018-12-14T00:58:03.620Z,18.70
2018-12-14T00:58:37.965Z,18.12
2018-12-14T00:59:11.698Z,19.15
2018-12-14T00:59:46.266Z,19.05
2018-12-14T01:00:20.350Z,18.48
2018-12-14T01:00:54.636Z,18.77
2018-12-14T01:01:28.686Z,18.62
2018-12-14T01:02:04.802Z,19.32
2018-12-14T01:02:38.761Z,19.50
2018-12-14T01:03:12.729Z,20.05
2018-12-14T01:03:48.118Z,18.95
2018-12-14T01:04:22.668Z,18.23
2018-12-14T01:04:57.455Z,18.85
2018-12-14T01:05:31.410Z,17.75
2018-12-14T01:06:05.782Z,18.45
2018-12-14T01:06:40.289Z,17.77
2018-12-14T01:07:14.914Z,19.02
2018-12-14T01:07:49.908Z,17.30
2018-12-14T01:08:26.871Z,18.62
2018-12-14T01:09:01.518Z,18.92
2018-12-14T01:09:35.829Z,18.25
2018-12-14T01:10:10.948Z,18.15
2018-12-14T01:10:46.273Z,18.40
2018-12-14T01:11:20.280Z,18.75
2018-12-14T01:11:58.230Z,18.42
2018-12-14T01:12:30.679Z,18.48
2018-12-14T01:13:04.504Z,18.02
2018-12-14T01:13:38.522Z,18.00
2018-12-14T01:14:12.350Z,17.42
2018-12-14T01:14:46.643Z,18.57
2018-12-14T01:15:21.145Z,16.80
2018-12-14T01:15:55.002Z,18.02
2018-12-14T01:16:28.807Z,18.73
2018-12-14T01:17:02.844Z,18.42
2018-12-14T01:17:36.879Z,18.05
2018-12-14T01:18:10.810Z,17.55
2018-12-14T01:18:44.802Z,17.62
2018-12-14T01:19:18.733Z,17.15
2018-12-14T01:19:53.467Z,17.15
2018-12-14T01:20:28.234Z,18.30
2018-12-14T01:21:01.970Z,17.62
2018-12-14T01:21:42.853Z,17.75
2018-12-14T01:22:16.809Z,18.00
2018-12-14T01:22:50.631Z,17.35
2018-12-14T01:23:24.392Z,18.70
2018-12-14T01:23:58.290Z,18.87
2018-12-14T01:24:32.484Z,17.48
2018-12-14T01:25:06.275Z,18.50
2018-12-14T01:25:40.774Z,20.70
2018-12-14T01:26:15.040Z,20.02
2018-12-14T01:26:48.869Z,21.35
2018-12-14T01:27:22.764Z,22.45
2018-12-14T01:27:56.663Z,22.45
2018-12-14T01:28:30.448Z,21.87
2018-12-14T01:29:04.506Z,21.95
2018-12-14T01:29:38.439Z,21.52
2018-12-14T01:30:12.261Z,21.93
2018-12-14T01:30:46.352Z,21.77
2018-12-14T01:31:20.206Z,21.02
2018-12-14T01:31:54.295Z,22.27
2018-12-14T01:32:28.270Z,21.07
2018-12-14T01:33:02.057Z,21.73
2018-12-14T01:33:35.974Z,21.07
2018-12-14T01:34:09.697Z,21.30
2018-12-14T01:34:43.398Z,21.62
2018-12-14T01:35:17.269Z,20.27
2018-12-14T01:35:51.265Z,19.73
2018-12-14T01:36:25.638Z,20.90
2018-12-14T01:36:59.699Z,20.12
2018-12-14T01:37:33.620Z,19.40
2018-12-14T01:38:07.562Z,20.95
2018-12-14T01:38:42.294Z,19.35
2018-12-14T01:39:16.299Z,18.92
2018-12-14T01:39:50.070Z,18.92
2018-12-14T01:40:23.958Z,19.23
2018-12-14T01:40:57.888Z,19.15
2018-12-14T01:41:31.922Z,18.67
2018-12-14T01:42:05.775Z,19.42
2018-12-14T01:42:39.829Z,18.70
2018-12-14T01:43:13.633Z,19.70
2018-12-14T01:43:48.291Z,18.17
2018-12-14T01:44:22.238Z,19.00
2018-12-14T01:44:56.320Z,19.60
2018-12-14T01:45:30.641Z,18.55
2018-12-14T01:46:04.629Z,18.48
2018-12-14T01:46:38.479Z,19.05
2018-12-14T01:47:12.317Z,18.70
2018-12-14T01:47:47.103Z,20.20
2018-12-14T01:48:21.055Z,18.05
2018-12-14T01:48:54.963Z,18.60
2018-12-14T01:49:29.366Z,18.15
2018-12-14T01:50:04.653Z,18.73
2018-12-14T01:50:38.393Z,18.62
2018-12-14T01:51:12.349Z,19.52
2018-12-14T01:51:46.626Z,18.17
2018-12-14T01:52:21.413Z,18.12
2018-12-14T01:52:55.685Z,18.10
2018-12-14T01:53:29.554Z,19.52
2018-12-14T01:54:03.431Z,18.52
2018-12-14T01:54:37.106Z,18.92
2018-12-14T01:55:11.041Z,19.02
2018-12-14T01:55:44.928Z,18.27
2018-12-14T01:56:18.694Z,18.62
2018-12-14T01:56:52.630Z,17.85
2018-12-14T01:57:26.690Z,19.12
2018-12-14T01:58:00.782Z,18.17
2018-12-14T01:58:34.713Z,18.50
2018-12-14T01:59:08.978Z,17.32
2018-12-14T01:59:42.897Z,18.30
2018-12-14T02:00:17.207Z,17.77
2018-12-14T02:00:51.027Z,18.52
2018-12-14T02:01:24.782Z,18.42
2018-12-14T02:01:58.661Z,18.82
2018-12-14T02:02:32.637Z,18.80
2018-12-14T02:03:06.462Z,18.52
2018-12-14T02:03:40.346Z,18.12
2018-12-14T02:04:14.484Z,18.12
2018-12-14T02:04:48.589Z,18.73
2018-12-14T02:05:22.607Z,18.20
2018-12-14T02:05:57.001Z,17.55
2018-12-14T02:06:30.951Z,18.17
2018-12-14T02:07:04.918Z,17.82
2018-12-14T02:07:38.723Z,17.75
2018-12-14T02:08:12.796Z,18.07
2018-12-14T02:08:46.645Z,17.90
2018-12-14T02:09:21.054Z,17.70
2018-12-14T02:09:54.854Z,17.15
2018-12-14T02:10:28.777Z,18.25
2018-12-14T02:11:02.768Z,17.57
2018-12-14T02:11:36.522Z,16.60
2018-12-14T02:12:11.486Z,17.07
2018-12-14T02:12:45.600Z,16.62
2018-12-14T02:13:19.521Z,17.82
2018-12-14T02:13:53.449Z,17.90
2018-12-14T02:14:27.734Z,17.80
2018-12-14T02:15:01.835Z,18.12
2018-12-14T02:15:35.883Z,17.17
2018-12-14T02:16:09.680Z,16.95
2018-12-14T02:16:43.440Z,16.95
2018-12-14T02:17:17.453Z,17.25
2018-12-14T02:17:51.223Z,17.90
2018-12-14T02:18:25.091Z,15.90
2018-12-14T02:18:58.898Z,17.60
2018-12-14T02:19:33.228Z,17.95
2018-12-14T02:20:07.310Z,18.07
2018-12-14T02:20:41.368Z,17.12
2018-12-14T02:21:15.217Z,17.23
2018-12-14T02:21:49.114Z,16.65
2018-12-14T02:22:23.122Z,15.80
2018-12-14T02:22:57.116Z,17.25
2018-12-14T02:23:30.749Z,16.52
2018-12-14T02:24:05.438Z,18.17
2018-12-14T02:24:39.325Z,18.57
2018-12-14T02:25:13.202Z,17.20
2018-12-14T02:25:47.025Z,17.60
2018-12-14T02:26:21.103Z,16.85
2018-12-14T02:26:55.050Z,17.37
2018-12-14T02:27:28.987Z,17.07
2018-12-14T02:28:05.666Z,16.73
2018-12-14T02:28:39.881Z,16.80
2018-12-14T02:29:13.746Z,17.37
2018-12-14T02:29:47.486Z,18.52
2018-12-14T02:30:45.983Z,16.90
2018-12-14T02:31:19.725Z,17.17
2018-12-14T02:31:54.124Z,16.45
2018-12-14T02:32:27.959Z,16.70
2018-12-14T02:33:01.988Z,16.62
2018-12-14T02:33:35.991Z,16.97
2018-12-14T02:34:09.713Z,17.15
2018-12-14T02:34:43.345Z,17.87
2018-12-14T02:35:17.291Z,18.05
2018-12-14T02:35:51.170Z,16.48
2018-12-14T02:36:25.359Z,16.55
2018-12-14T02:36:59.261Z,17.27
2018-12-14T02:37:33.214Z,17.12
2018-12-14T02:38:07.178Z,17.45
2018-12-14T02:38:41.700Z,16.37
2018-12-14T02:39:16.233Z,16.67
2018-12-14T02:39:50.139Z,17.40
2018-12-14T02:40:23.898Z,17.42
2018-12-14T02:40:57.876Z,17.77
2018-12-14T02:41:32.368Z,18.12
2018-12-14T02:42:06.258Z,16.55
2018-12-14T02:42:40.170Z,17.30
2018-12-14T02:43:14.154Z,16.82
2018-12-14T02:43:48.069Z,17.52
2018-12-14T02:44:21.998Z,16.30
2018-12-14T02:44:56.002Z,16.57
2018-12-14T02:45:29.953Z,17.35
2018-12-14T02:46:04.077Z,17.37
2018-12-14T02:46:38.129Z,16.93
2018-12-14T02:47:12.271Z,17.52
2018-12-14T02:47:45.952Z,17.77
2018-12-14T02:48:20.039Z,16.95
2018-12-14T02:48:53.878Z,16.48
2018-12-14T02:49:27.832Z,17.25
2018-12-14T02:50:01.825Z,16.90
2018-12-14T02:50:35.767Z,17.05
2018-12-14T02:51:09.777Z,17.07
2018-12-14T02:51:43.559Z,17.17
2018-12-14T02:52:17.493Z,18.00
2018-12-14T02:52:51.492Z,17.48
2018-12-14T02:53:25.345Z,17.10
2018-12-14T02:53:59.235Z,17.25
2018-12-14T02:54:33.266Z,17.15
2018-12-14T02:55:07.083Z,17.37
2018-12-14T02:55:41.258Z,17.35
2018-12-14T02:56:15.166Z,17.70
2018-12-14T02:56:49.431Z,17.12
2018-12-14T02:57:23.397Z,18.07
2018-12-14T02:57:57.783Z,17.37
2018-12-14T02:58:31.659Z,18.42
2018-12-14T02:59:05.506Z,16.95
2018-12-14T02:59:39.330Z,18.25
2018-12-14T03:00:13.457Z,17.50
2018-12-14T03:00:47.233Z,16.97
2018-12-14T03:01:21.542Z,16.95
2018-12-14T03:01:55.640Z,18.27
2018-12-14T03:02:29.589Z,16.65
2018-12-14T03:03:03.483Z,17.40
2018-12-14T03:03:39.265Z,16.97
2018-12-14T03:04:13.043Z,17.95
2018-12-14T03:04:46.706Z,17.20
2018-12-14T03:05:20.778Z,16.85
2018-12-14T03:05:54.557Z,17.55
2018-12-14T03:06:28.532Z,18.23
2018-12-14T03:07:02.628Z,17.27
2018-12-14T03:07:36.557Z,17.10
2018-12-14T03:08:10.619Z,17.07
2018-12-14T03:08:44.260Z,17.35
2018-12-14T03:09:18.486Z,16.37
2018-12-14T03:09:52.290Z,17.37
2018-12-14T03:10:26.299Z,17.67
2018-12-14T03:11:00.137Z,17.60
2018-12-14T03:11:34.263Z,18.62
2018-12-14T03:12:08.935Z,18.40
2018-12-14T03:13:23.616Z,16.30
2018-12-14T03:13:57.488Z,17.17
2018-12-14T03:14:31.487Z,16.65
2018-12-14T03:15:06.020Z,16.50
2018-12-14T03:15:39.873Z,17.73
2018-12-14T03:16:13.734Z,16.82
2018-12-14T03:16:48.541Z,16.87
2018-12-14T03:17:22.458Z,16.90
2018-12-14T03:17:56.477Z,17.48
2018-12-14T03:18:30.555Z,17.73
2018-12-14T03:19:04.541Z,16.82
2018-12-14T03:19:38.362Z,17.00
2018-12-14T03:20:12.608Z,17.62
2018-12-14T03:20:46.605Z,16.85
2018-12-14T03:21:20.398Z,17.23
2018-12-14T03:21:54.229Z,18.12
2018-12-14T03:22:28.226Z,18.23
2018-12-14T03:23:02.082Z,17.80
2018-12-14T03:23:35.845Z,17.02
2018-12-14T03:24:09.926Z,17.23
2018-12-14T03:24:43.828Z,18.32
2018-12-14T03:25:17.715Z,17.55
2018-12-14T03:25:51.800Z,17.80
2018-12-14T03:26:25.743Z,16.85
2018-12-14T03:27:02.767Z,18.07
2018-12-14T03:27:37.842Z,16.73
2018-12-14T03:28:12.350Z,17.40
2018-12-14T03:28:46.232Z,17.15
2018-12-14T03:29:20.221Z,16.73
2018-12-14T03:29:54.360Z,17.70
2018-12-14T03:30:28.170Z,17.67
2018-12-14T03:31:02.141Z,17.82
2018-12-14T03:31:35.938Z,17.50
2018-12-14T03:32:09.741Z,17.65
2018-12-14T03:32:43.517Z,16.97
2018-12-14T03:33:18.574Z,17.82
2018-12-14T03:33:52.999Z,17.27
2018-12-14T03:34:27.102Z,16.87
2018-12-14T03:35:01.097Z,16.30
2018-12-14T03:35:35.558Z,17.17
2018-12-14T03:36:10.053Z,16.52
2018-12-14T03:36:43.876Z,17.60
2018-12-14T03:37:17.780Z,17.77
2018-12-14T03:37:51.524Z,16.48
2018-12-14T03:38:25.512Z,17.57
2018-12-14T03:38:59.323Z,17.48
2018-12-14T03:39:33.126Z,16.27
2018-12-14T03:40:07.311Z,17.20
2018-12-14T03:40:41.458Z,16.97
2018-12-14T03:41:15.482Z,17.40
2018-12-14T03:41:49.306Z,17.87
2018-12-14T03:42:23.353Z,17.17
2018-12-14T03:42:57.155Z,18.20
2018-12-14T03:43:31.211Z,17.35
2018-12-14T03:44:06.645Z,18.02
2018-12-14T03:44:41.062Z,18.17
2018-12-14T03:45:14.966Z,16.57
2018-12-14T03:45:49.439Z,17.73
2018-12-14T03:46:23.329Z,16.50
2018-12-14T03:46:57.013Z,17.75
2018-12-14T03:47:31.039Z,17.50
2018-12-14T03:48:05.470Z,17.67
2018-12-14T03:48:39.417Z,16.57
2018-12-14T03:49:13.245Z,16.50
2018-12-14T03:49:47.588Z,17.15
2018-12-14T03:50:22.366Z,17.07
2018-12-14T03:50:56.265Z,15.95
2018-12-14T03:51:30.261Z,17.90
2018-12-14T03:52:04.181Z,16.82
2018-12-14T03:52:38.063Z,16.25
2018-12-14T03:53:11.775Z,15.93
2018-12-14T03:53:45.675Z,17.50
2018-12-14T03:54:20.661Z,16.42
2018-12-14T03:54:55.420Z,15.75
2018-12-14T03:55:29.195Z,16.85
2018-12-14T03:56:03.260Z,16.85
2018-12-14T03:56:36.968Z,16.75
2018-12-14T03:57:11.085Z,16.93
2018-12-14T03:57:45.006Z,16.42
2018-12-14T03:58:19.649Z,17.32
2018-12-14T03:58:54.063Z,17.60
2018-12-14T03:59:28.496Z,16.02
2018-12-14T04:00:02.329Z,16.40
2018-12-14T04:00:36.409Z,16.05
2018-12-14T04:01:10.365Z,16.15
2018-12-14T04:01:44.420Z,16.97
2018-12-14T04:02:18.377Z,16.25
2018-12-14T04:02:52.258Z,16.60
2018-12-14T04:03:26.139Z,17.35
2018-12-14T04:04:00.042Z,16.82
2018-12-14T04:04:33.963Z,16.12
2018-12-14T04:05:08.350Z,17.17
2018-12-14T04:05:42.553Z,16.15
2018-12-14T04:06:17.243Z,16.87
2018-12-14T04:06:51.279Z,16.12
2018-12-14T04:07:25.065Z,16.77
2018-12-14T04:07:59.128Z,16.48
2018-12-14T04:08:33.039Z,16.90
2018-12-14T04:09:07.099Z,17.32
2018-12-14T04:14:33.708Z,12.93
2018-12-14T04:15:07.888Z,15.40
2018-12-14T04:15:42.051Z,15.45
2018-12-14T04:16:16.070Z,16.00
2018-12-14T04:16:50.517Z,16.48
2018-12-14T04:17:24.478Z,16.30
2018-12-14T04:17:58.526Z,17.67
2018-12-14T04:18:32.422Z,16.82
2018-12-14T04:19:06.362Z,17.20
2018-12-14T04:19:40.294Z,16.67
2018-12-14T04:20:14.235Z,16.85
2018-12-14T04:20:48.264Z,16.75
2018-12-14T04:21:22.069Z,16.35
2018-12-14T04:21:56.006Z,17.05
2018-12-14T04:22:29.906Z,16.73
2018-12-14T04:23:03.959Z,16.60
2018-12-14T04:23:39.929Z,16.82
2018-12-14T04:24:14.088Z,16.87
2018-12-14T04:24:48.002Z,16.87
2018-12-14T04:25:21.824Z,15.88
2018-12-14T04:25:55.596Z,17.52
2018-12-14T04:26:29.643Z,17.40
2018-12-14T04:27:03.915Z,17.17
2018-12-14T04:27:37.854Z,16.57
2018-12-14T04:28:11.921Z,16.87
2018-12-14T04:28:45.866Z,17.60
2018-12-14T04:29:19.837Z,16.82
2018-12-14T04:29:53.774Z,16.62
2018-12-14T04:30:28.062Z,16.77
2018-12-14T04:31:02.155Z,16.80
2018-12-14T04:31:36.170Z,15.65
2018-12-14T04:32:10.003Z,16.30
2018-12-14T04:32:44.082Z,16.35
2018-12-14T04:33:18.200Z,16.82
2018-12-14T04:33:51.957Z,16.40
2018-12-14T04:34:26.012Z,17.00
2018-12-14T04:34:59.928Z,16.65
2018-12-14T04:35:33.906Z,15.93
2018-12-14T04:36:08.050Z,17.00
2018-12-14T04:36:41.933Z,16.82
2018-12-14T04:37:16.430Z,16.35
2018-12-14T04:37:50.465Z,15.80
2018-12-14T04:38:24.297Z,15.93
2018-12-14T04:38:58.122Z,16.05
2018-12-14T04:39:32.046Z,16.80
2018-12-14T04:40:06.990Z,16.50
2018-12-14T04:40:41.006Z,16.85
2018-12-14T04:41:15.088Z,16.90
2018-12-14T04:41:51.416Z,15.30
2018-12-14T04:42:25.657Z,16.00
2018-12-14T04:42:59.436Z,15.72
2018-12-14T04:43:33.430Z,16.52
2018-12-14T04:44:07.215Z,16.77
2018-12-14T04:44:41.523Z,17.15
2018-12-14T04:45:15.574Z,16.82
2018-12-14T04:45:49.429Z,16.73
2018-12-14T04:46:23.315Z,16.30
2018-12-14T04:46:57.955Z,15.13
2018-12-14T04:47:32.083Z,14.65
2018-12-14T04:48:07.939Z,16.52
2018-12-14T04:48:41.958Z,15.53
2018-12-14T04:49:15.913Z,16.60
2018-12-14T04:49:50.050Z,15.48
2018-12-14T04:50:24.122Z,14.93
2018-12-14T04:50:57.859Z,15.63
2018-12-14T04:51:31.759Z,16.57
2018-12-14T04:52:10.202Z,16.12
2018-12-14T04:52:44.080Z,16.20
2018-12-14T04:53:17.747Z,15.88
2018-12-14T04:53:51.666Z,15.40
2018-12-14T04:54:26.380Z,16.00
2018-12-14T04:55:00.562Z,16.12
2018-12-14T04:55:34.582Z,16.00
2018-12-14T04:56:08.723Z,15.55
2018-12-14T04:56:42.845Z,15.68
2018-12-14T04:57:16.676Z,15.98
2018-12-14T04:57:50.683Z,15.65
2018-12-14T04:58:24.665Z,16.52
2018-12-14T04:58:58.562Z,16.27
2018-12-14T04:59:32.449Z,17.37
2018-12-14T05:00:07.778Z,16.45
2018-12-14T05:00:41.603Z,16.42
2018-12-14T05:01:15.393Z,16.12
2018-12-14T05:01:49.324Z,15.93
2018-12-14T05:02:23.406Z,16.07
2018-12-14T05:02:57.201Z,15.90
2018-12-14T05:03:31.249Z,15.83
2018-12-14T05:04:04.908Z,16.37
2018-12-14T05:04:38.923Z,14.87
2018-12-14T05:05:12.843Z,14.65
2018-12-14T05:05:46.830Z,15.58
2018-12-14T05:06:21.249Z,15.32
2018-12-14T05:06:56.472Z,15.48
2018-12-14T05:07:30.704Z,15.10
2018-12-14T05:08:05.608Z,16.37
2018-12-14T05:08:39.428Z,15.43
2018-12-14T05:09:13.373Z,15.23
2018-12-14T05:09:47.184Z,15.88
2018-12-14T05:10:20.973Z,15.90
2018-12-14T05:10:54.832Z,16.05
2018-12-14T05:11:28.855Z,15.30
2018-12-14T05:12:02.984Z,16.23
2018-12-14T05:12:37.672Z,15.50
2018-12-14T05:13:11.666Z,16.12
2018-12-14T05:13:45.662Z,16.77
2018-12-14T05:14:19.943Z,16.52
2018-12-14T05:14:54.250Z,15.45
2018-12-14T05:15:28.250Z,15.38
2018-12-14T05:16:02.097Z,16.10
2018-12-14T05:16:36.061Z,15.63
2018-12-14T05:17:09.958Z,16.10
2018-12-14T05:17:44.004Z,16.62
2018-12-14T05:18:17.743Z,16.20
2018-12-14T05:18:52.283Z,15.30
2018-12-14T05:19:27.013Z,25.85
2018-12-14T05:20:01.283Z,24.57
2018-12-14T05:20:35.354Z,22.67
2018-12-14T05:21:09.146Z,23.18
2018-12-14T05:21:43.230Z,19.27
2018-12-14T05:22:17.068Z,18.10
2018-12-14T05:22:51.000Z,18.77
2018-12-14T05:23:27.121Z,17.48
2018-12-14T05:24:01.054Z,17.02
2018-12-14T05:24:35.026Z,15.98
2018-12-14T05:25:11.522Z,15.88
2018-12-14T05:25:46.853Z,15.38
2018-12-14T05:26:21.604Z,16.12
2018-12-14T05:26:56.951Z,16.40
2018-12-14T05:27:32.296Z,16.12
2018-12-14T05:28:06.317Z,16.48
2018-12-14T05:28:40.534Z,16.12
2018-12-14T05:29:14.431Z,15.93
2018-12-14T05:29:48.426Z,16.42
2018-12-14T05:30:22.314Z,17.27
2018-12-14T05:30:56.135Z,16.93
2018-12-14T05:31:30.500Z,16.65
2018-12-14T05:32:04.178Z,15.63
2018-12-14T05:32:38.027Z,16.27
2018-12-14T05:33:12.501Z,15.38
2018-12-14T05:33:46.381Z,15.65
2018-12-14T05:34:20.214Z,16.30
2018-12-14T05:34:54.198Z,16.15
2018-12-14T05:35:28.081Z,16.20
2018-12-14T05:36:02.006Z,16.15
2018-12-14T05:36:36.026Z,15.80
2018-12-14T05:37:09.883Z,15.78
2018-12-14T05:37:43.932Z,16.27
2018-12-14T05:38:17.959Z,16.52
2018-12-14T05:38:52.037Z,16.32
2018-12-14T05:39:25.817Z,16.37
2018-12-14T05:39:59.699Z,16.42
2018-12-14T05:40:33.799Z,17.23
2018-12-14T05:41:07.855Z,16.42
2018-12-14T05:41:41.801Z,15.40
2018-12-14T05:42:17.386Z,17.20
2018-12-14T05:42:51.252Z,16.30
2018-12-14T05:43:25.303Z,15.48
2018-12-14T05:43:59.305Z,16.10
2018-12-14T05:44:33.225Z,16.15
2018-12-14T05:45:07.790Z,15.63
2018-12-14T05:45:41.801Z,17.35
2018-12-14T05:46:15.764Z,16.17
2018-12-14T05:46:49.662Z,15.98
2018-12-14T05:47:23.591Z,15.88
2018-12-14T05:47:57.629Z,16.55
2018-12-14T05:48:31.546Z,15.60
2018-12-14T05:49:05.598Z,16.07
2018-12-14T05:49:39.391Z,16.65
2018-12-14T05:50:16.145Z,14.85
2018-12-14T05:50:50.701Z,16.15
2018-12-14T05:51:24.514Z,15.95
2018-12-14T05:51:58.270Z,16.40
2018-12-14T05:52:32.258Z,17.30
2018-12-14T05:53:06.289Z,16.82
2018-12-14T05:53:40.893Z,17.20
2018-12-14T05:54:17.472Z,15.88
2018-12-14T05:54:51.264Z,17.15
2018-12-14T05:55:25.435Z,16.23
2018-12-14T05:55:59.490Z,16.00
2018-12-14T05:56:33.647Z,17.73
2018-12-14T05:57:07.324Z,16.15
2018-12-14T05:57:41.426Z,16.37
2018-12-14T05:58:15.320Z,16.42
2018-12-14T05:58:49.243Z,16.20
2018-12-14T05:59:23.631Z,16.25
2018-12-14T05:59:57.558Z,16.50
2018-12-14T06:00:31.494Z,17.15
2018-12-14T06:01:05.411Z,15.98
2018-12-14T06:01:39.418Z,16.57
2018-12-14T06:02:13.328Z,15.20
2018-12-14T06:02:47.228Z,16.50
2018-12-14T06:03:22.171Z,16.40
2018-12-14T06:03:56.530Z,15.85
2018-12-14T06:04:30.641Z,15.45
2018-12-14T06:05:06.959Z,16.45
2018-12-14T06:06:23.707Z,16.20
2018-12-14T06:06:57.609Z,16.55
2018-12-14T06:07:31.525Z,16.40
2018-12-14T06:08:06.898Z,17.65
2018-12-14T06:08:41.657Z,16.57
2018-12-14T06:09:15.636Z,16.30
2018-12-14T06:09:50.139Z,17.35
2018-12-14T06:10:24.126Z,16.50
2018-12-14T06:10:57.871Z,16.20
2018-12-14T06:11:31.909Z,17.15
2018-12-14T06:12:05.779Z,16.17
2018-12-14T06:12:39.542Z,15.68
2018-12-14T06:13:13.626Z,16.55
2018-12-14T06:13:47.744Z,16.57
2018-12-14T06:14:22.866Z,16.87
2018-12-14T06:15:00.850Z,17.52
2018-12-14T06:15:35.078Z,16.07
2018-12-14T06:16:09.006Z,16.32
2018-12-14T06:16:42.753Z,15.95
2018-12-14T06:17:16.638Z,15.78
2018-12-14T06:17:52.355Z,16.37
2018-12-14T06:18:26.806Z,17.02
2018-12-14T06:19:00.745Z,15.60
2018-12-14T06:19:35.043Z,16.12
2018-12-14T06:20:08.946Z,16.73
2018-12-14T06:20:43.033Z,15.83
2018-12-14T06:21:17.124Z,15.65
2018-12-14T06:21:51.220Z,17.00
2018-12-14T06:22:25.063Z,16.40
2018-12-14T06:22:59.129Z,16.80
2018-12-14T06:23:33.031Z,16.20
2018-12-14T06:24:07.025Z,15.70
2018-12-14T06:24:41.921Z,16.10
2018-12-14T06:25:15.754Z,17.12
2018-12-14T06:25:49.810Z,15.95
2018-12-14T06:26:23.599Z,16.77
2018-12-14T06:26:57.498Z,15.90
2018-12-14T06:27:32.021Z,15.60
2018-12-14T06:28:05.742Z,15.58
2018-12-14T06:28:39.610Z,16.27
2018-12-14T06:29:13.618Z,16.97
2018-12-14T06:29:47.562Z,16.42
2018-12-14T06:30:21.341Z,16.82
2018-12-14T06:30:55.205Z,16.27
2018-12-14T06:31:29.199Z,16.42
2018-12-14T06:32:03.231Z,15.85
2018-12-14T06:32:37.078Z,17.42
2018-12-14T06:33:10.942Z,16.17
2018-12-14T06:33:44.747Z,16.95
2018-12-14T06:34:18.682Z,15.48
2018-12-14T06:34:52.573Z,16.70
2018-12-14T06:35:26.494Z,16.87
2018-12-14T06:36:00.440Z,16.07
2018-12-14T06:36:35.151Z,16.65
2018-12-14T06:37:09.058Z,16.65
2018-12-14T06:37:43.183Z,16.25
2018-12-14T06:38:17.152Z,17.20
2018-12-14T06:38:51.139Z,15.40
2018-12-14T06:39:25.095Z,15.65
2018-12-14T06:39:59.007Z,16.73
2018-12-14T06:40:32.734Z,16.23
2018-12-14T06:41:06.849Z,15.90
2018-12-14T06:41:40.750Z,16.57
2018-12-14T06:42:14.668Z,17.12
2018-12-14T06:42:48.518Z,16.15
2018-12-14T06:43:23.811Z,16.37
2018-12-14T06:43:57.654Z,17.10
2018-12-14T06:44:31.777Z,15.95
2018-12-14T06:45:06.333Z,17.62
2018-12-14T06:45:40.325Z,16.62
2018-12-14T06:46:14.250Z,16.57
2018-12-14T06:46:48.106Z,16.97
2018-12-14T06:47:22.378Z,16.02
2018-12-14T06:47:56.181Z,16.05
2018-12-14T06:48:30.577Z,16.87
2018-12-14T06:49:04.582Z,16.57
2018-12-14T06:49:38.700Z,15.85
2018-12-14T06:50:12.509Z,16.30
2018-12-14T06:50:46.800Z,16.62
2018-12-14T06:51:20.561Z,17.15
2018-12-14T06:51:54.848Z,16.75
2018-12-14T06:52:28.610Z,16.10
2018-12-14T06:53:02.840Z,17.90
2018-12-14T06:53:37.347Z,16.90
2018-12-14T06:54:11.310Z,15.70
2018-12-14T06:54:45.049Z,17.77
2018-12-14T06:55:19.025Z,16.32
2018-12-14T06:55:52.840Z,16.62
2018-12-14T06:56:27.135Z,16.23
2018-12-14T06:57:00.791Z,16.52
2018-12-14T06:57:34.761Z,16.65
2018-12-14T06:58:08.566Z,17.05
2018-12-14T06:58:42.667Z,17.00
2018-12-14T06:59:18.193Z,16.37
2018-12-14T06:59:51.997Z,16.57
2018-12-14T07:00:26.031Z,16.73
2018-12-14T07:01:00.710Z,16.37
2018-12-14T07:01:34.424Z,16.40
2018-12-14T07:02:08.285Z,16.32
2018-12-14T07:02:42.242Z,17.42
2018-12-14T07:03:16.033Z,17.70
2018-12-14T07:03:49.916Z,17.32
2018-12-14T07:04:25.759Z,16.93
2018-12-14T07:04:59.468Z,17.52
2018-12-14T07:05:33.441Z,16.35
2018-12-14T07:06:07.695Z,17.25
2018-12-14T07:06:41.550Z,17.12
2018-12-14T07:07:15.483Z,17.32
2018-12-14T07:07:49.718Z,17.02
2018-12-14T07:08:23.649Z,15.35
2018-12-14T07:08:57.684Z,17.20
2018-12-14T07:09:31.929Z,16.45
2018-12-14T07:10:06.326Z,17.57
2018-12-14T07:10:40.300Z,17.50
2018-12-14T07:11:14.171Z,16.45
2018-12-14T07:11:48.244Z,17.65
2018-12-14T07:12:25.134Z,16.70
2018-12-14T07:12:59.087Z,17.10
2018-12-14T07:13:33.005Z,17.12
2018-12-14T07:14:06.994Z,16.85
2018-12-14T07:14:41.389Z,17.02
2018-12-14T07:15:15.218Z,16.37
2018-12-14T07:15:49.432Z,16.75
2018-12-14T07:16:23.302Z,17.17
2018-12-14T07:16:57.193Z,17.85
2018-12-14T07:17:31.017Z,17.17
2018-12-14T07:18:04.890Z,16.75
2018-12-14T07:18:38.774Z,18.48
2018-12-14T07:19:12.609Z,17.82
2018-12-14T07:19:47.070Z,17.73
2018-12-14T07:20:20.906Z,17.50
2018-12-14T07:20:54.798Z,17.55
2018-12-14T07:21:28.570Z,17.48
2018-12-14T07:22:02.587Z,17.20
2018-12-14T07:22:36.347Z,18.48
2018-12-14T07:23:10.238Z,17.55
2018-12-14T07:23:44.042Z,17.65
2018-12-14T07:24:17.994Z,16.77
2018-12-14T07:24:51.918Z,17.17
2018-12-14T07:25:25.713Z,17.67
2018-12-14T07:25:59.746Z,17.40
2018-12-14T07:26:33.977Z,18.27
2018-12-14T07:27:07.802Z,17.27
2018-12-14T07:27:41.748Z,16.27